sensor_id;sensor_type;location;lat;lon;timestamp;P1;durP1;ratioP1;P2;durP2;ratioP2
22826;SDS011;11580;52.562;13.418;2023-05-02T00:00:30;8.83;;;8.13;;
22826;SDS011;11580;52.562;13.418;2023-05-02T00:02:58;9.20;;;8.30;;
22826;SDS011;11580;52.562;13.418;2023-05-02T00:05:26;8.33;;;7.63;;
22826;SDS011;11580;52.562;13.418;2023-05-02T00:07:53;8.10;;;7.47;;
22826;SDS011;11580;52.562;13.418;2023-05-02T00:10:21;8.30;;;7.60;;
22826;SDS011;11580;52.562;13.418;2023-05-02T00:12:48;8.43;;;7.80;;
22826;SDS011;11580;52.562;13.418;2023-05-02T00:15:15;8.60;;;8.00;;
22826;SDS011;11580;52.562;13.418;2023-05-02T00:17:43;8.00;;;7.33;;
22826;SDS011;11580;52.562;13.418;2023-05-02T00:20:11;8.40;;;7.70;;
22826;SDS011;11580;52.562;13.418;2023-05-02T00:22:39;8.30;;;7.60;;
22826;SDS011;11580;52.562;13.418;2023-05-02T00:25:06;9.40;;;8.60;;
22826;SDS011;11580;52.562;13.418;2023-05-02T00:27:40;8.77;;;8.17;;
22826;SDS011;11580;52.562;13.418;2023-05-02T00:30:07;8.33;;;7.63;;
22826;SDS011;11580;52.562;13.418;2023-05-02T00:32:35;9.10;;;8.30;;
22826;SDS011;11580;52.562;13.418;2023-05-02T00:35:03;8.33;;;7.63;;
22826;SDS011;11580;52.562;13.418;2023-05-02T00:37:33;8.40;;;7.80;;
22826;SDS011;11580;52.562;13.418;2023-05-02T00:40:01;8.30;;;7.70;;
22826;SDS011;11580;52.562;13.418;2023-05-02T00:42:29;7.83;;;7.23;;
22826;SDS011;11580;52.562;13.418;2023-05-02T00:45:00;9.77;;;7.70;;
22826;SDS011;11580;52.562;13.418;2023-05-02T00:47:30;7.87;;;7.07;;
22826;SDS011;11580;52.562;13.418;2023-05-02T00:49:58;7.87;;;7.20;;
22826;SDS011;11580;52.562;13.418;2023-05-02T00:52:25;8.70;;;8.00;;
22826;SDS011;11580;52.562;13.418;2023-05-02T00:54:55;9.10;;;8.30;;
22826;SDS011;11580;52.562;13.418;2023-05-02T00:57:22;8.73;;;8.03;;
22826;SDS011;11580;52.562;13.418;2023-05-02T00:59:50;7.90;;;7.30;;
22826;SDS011;11580;52.562;13.418;2023-05-02T01:02:21;7.80;;;7.13;;
22826;SDS011;11580;52.562;13.418;2023-05-02T01:07:53;8.00;;;7.27;;
22826;SDS011;11580;52.562;13.418;2023-05-02T01:10:47;7.00;;;6.50;;
22826;SDS011;11580;52.562;13.418;2023-05-02T01:13:25;8.20;;;7.60;;
22826;SDS011;11580;52.562;13.418;2023-05-02T01:15:58;7.83;;;7.23;;
22826;SDS011;11580;52.562;13.418;2023-05-02T01:18:29;7.50;;;6.90;;
22826;SDS011;11580;52.562;13.418;2023-05-02T01:21:02;7.87;;;7.27;;
22826;SDS011;11580;52.562;13.418;2023-05-02T01:23:37;7.97;;;7.13;;
22826;SDS011;11580;52.562;13.418;2023-05-02T01:26:26;8.80;;;8.10;;
22826;SDS011;11580;52.562;13.418;2023-05-02T01:29:02;7.77;;;7.17;;
22826;SDS011;11580;52.562;13.418;2023-05-02T01:31:33;8.50;;;7.60;;
22826;SDS011;11580;52.562;13.418;2023-05-02T01:34:05;8.33;;;7.63;;
22826;SDS011;11580;52.562;13.418;2023-05-02T01:36:38;8.50;;;7.80;;
22826;SDS011;11580;52.562;13.418;2023-05-02T01:39:09;8.30;;;7.63;;
22826;SDS011;11580;52.562;13.418;2023-05-02T01:41:43;7.23;;;6.73;;
22826;SDS011;11580;52.562;13.418;2023-05-02T01:44:16;8.10;;;7.30;;
22826;SDS011;11580;52.562;13.418;2023-05-02T01:46:45;7.60;;;7.00;;
22826;SDS011;11580;52.562;13.418;2023-05-02T01:49:14;8.20;;;7.50;;
22826;SDS011;11580;52.562;13.418;2023-05-02T01:51:46;7.43;;;6.67;;
22826;SDS011;11580;52.562;13.418;2023-05-02T01:54:16;7.57;;;6.87;;
22826;SDS011;11580;52.562;13.418;2023-05-02T01:56:46;8.03;;;7.40;;
22826;SDS011;11580;52.562;13.418;2023-05-02T01:59:17;6.53;;;5.93;;
22826;SDS011;11580;52.562;13.418;2023-05-02T02:01:47;7.47;;;6.60;;
22826;SDS011;11580;52.562;13.418;2023-05-02T02:04:18;6.97;;;6.33;;
22826;SDS011;11580;52.562;13.418;2023-05-02T02:06:47;6.80;;;6.20;;
22826;SDS011;11580;52.562;13.418;2023-05-02T02:09:20;6.43;;;5.80;;
22826;SDS011;11580;52.562;13.418;2023-05-02T02:11:48;6.80;;;6.30;;
22826;SDS011;11580;52.562;13.418;2023-05-02T02:14:24;7.33;;;6.73;;
22826;SDS011;11580;52.562;13.418;2023-05-02T02:17:00;6.40;;;6.00;;
22826;SDS011;11580;52.562;13.418;2023-05-02T02:19:35;6.13;;;5.63;;
22826;SDS011;11580;52.562;13.418;2023-05-02T02:22:06;6.67;;;6.07;;
22826;SDS011;11580;52.562;13.418;2023-05-02T02:24:35;7.40;;;6.70;;
22826;SDS011;11580;52.562;13.418;2023-05-02T02:27:04;6.63;;;6.13;;
22826;SDS011;11580;52.562;13.418;2023-05-02T02:29:33;8.80;;;6.77;;
22826;SDS011;11580;52.562;13.418;2023-05-02T02:32:01;6.90;;;6.40;;
22826;SDS011;11580;52.562;13.418;2023-05-02T02:34:28;7.07;;;6.53;;
22826;SDS011;11580;52.562;13.418;2023-05-02T02:36:56;6.77;;;6.17;;
22826;SDS011;11580;52.562;13.418;2023-05-02T02:39:34;6.90;;;6.30;;
22826;SDS011;11580;52.562;13.418;2023-05-02T02:42:15;6.00;;;5.50;;
22826;SDS011;11580;52.562;13.418;2023-05-02T02:45:00;6.97;;;6.13;;
22826;SDS011;11580;52.562;13.418;2023-05-02T02:47:47;5.50;;;5.10;;
22826;SDS011;11580;52.562;13.418;2023-05-02T02:50:29;5.67;;;5.27;;
22826;SDS011;11580;52.562;13.418;2023-05-02T02:53:03;5.80;;;5.20;;
22826;SDS011;11580;52.562;13.418;2023-05-02T02:55:35;6.10;;;5.50;;
22826;SDS011;11580;52.562;13.418;2023-05-02T02:58:14;5.63;;;5.13;;
22826;SDS011;11580;52.562;13.418;2023-05-02T03:00:51;5.40;;;5.00;;
22826;SDS011;11580;52.562;13.418;2023-05-02T03:03:21;6.50;;;5.13;;
22826;SDS011;11580;52.562;13.418;2023-05-02T03:05:53;6.13;;;5.63;;
22826;SDS011;11580;52.562;13.418;2023-05-02T03:08:23;6.10;;;5.70;;
22826;SDS011;11580;52.562;13.418;2023-05-02T03:10:50;5.93;;;5.40;;
22826;SDS011;11580;52.562;13.418;2023-05-02T03:13:18;5.60;;;5.10;;
22826;SDS011;11580;52.562;13.418;2023-05-02T03:16:11;5.40;;;4.90;;
22826;SDS011;11580;52.562;13.418;2023-05-02T03:19:04;4.90;;;4.50;;
22826;SDS011;11580;52.562;13.418;2023-05-02T03:21:32;5.43;;;4.93;;
22826;SDS011;11580;52.562;13.418;2023-05-02T03:24:08;5.77;;;5.27;;
22826;SDS011;11580;52.562;13.418;2023-05-02T03:26:35;4.90;;;4.37;;
22826;SDS011;11580;52.562;13.418;2023-05-02T03:29:05;5.40;;;5.00;;
22826;SDS011;11580;52.562;13.418;2023-05-02T03:31:38;6.47;;;5.20;;
22826;SDS011;11580;52.562;13.418;2023-05-02T03:34:06;6.40;;;5.90;;
22826;SDS011;11580;52.562;13.418;2023-05-02T03:36:35;5.50;;;5.10;;
22826;SDS011;11580;52.562;13.418;2023-05-02T03:39:02;5.60;;;5.10;;
22826;SDS011;11580;52.562;13.418;2023-05-02T03:41:30;5.50;;;5.00;;
22826;SDS011;11580;52.562;13.418;2023-05-02T03:44:03;4.93;;;4.50;;
22826;SDS011;11580;52.562;13.418;2023-05-02T03:46:31;4.07;;;3.67;;
22826;SDS011;11580;52.562;13.418;2023-05-02T03:49:01;4.63;;;4.20;;
22826;SDS011;11580;52.562;13.418;2023-05-02T03:51:28;5.37;;;4.50;;
22826;SDS011;11580;52.562;13.418;2023-05-02T03:53:57;5.87;;;4.90;;
22826;SDS011;11580;52.562;13.418;2023-05-02T03:56:26;4.20;;;3.90;;
22826;SDS011;11580;52.562;13.418;2023-05-02T03:59:06;3.80;;;3.60;;
22826;SDS011;11580;52.562;13.418;2023-05-02T04:01:33;4.60;;;4.20;;
22826;SDS011;11580;52.562;13.418;2023-05-02T04:04:02;5.20;;;4.70;;
22826;SDS011;11580;52.562;13.418;2023-05-02T04:06:35;9.53;;;5.07;;
22826;SDS011;11580;52.562;13.418;2023-05-02T04:09:05;5.53;;;5.13;;
22826;SDS011;11580;52.562;13.418;2023-05-02T04:11:39;6.53;;;4.80;;
22826;SDS011;11580;52.562;13.418;2023-05-02T04:14:08;5.33;;;4.73;;
22826;SDS011;11580;52.562;13.418;2023-05-02T04:16:35;4.33;;;3.80;;
22826;SDS011;11580;52.562;13.418;2023-05-02T04:19:04;5.23;;;4.93;;
22826;SDS011;11580;52.562;13.418;2023-05-02T04:21:32;5.70;;;5.30;;
22826;SDS011;11580;52.562;13.418;2023-05-02T04:24:04;5.57;;;4.93;;
22826;SDS011;11580;52.562;13.418;2023-05-02T04:26:31;5.37;;;4.90;;
22826;SDS011;11580;52.562;13.418;2023-05-02T04:29:04;5.23;;;4.83;;
22826;SDS011;11580;52.562;13.418;2023-05-02T04:31:32;5.87;;;5.20;;
22826;SDS011;11580;52.562;13.418;2023-05-02T04:33:59;5.63;;;5.23;;
22826;SDS011;11580;52.562;13.418;2023-05-02T04:36:34;5.30;;;4.90;;
22826;SDS011;11580;52.562;13.418;2023-05-02T04:39:03;5.83;;;5.23;;
22826;SDS011;11580;52.562;13.418;2023-05-02T04:41:34;4.37;;;4.07;;
22826;SDS011;11580;52.562;13.418;2023-05-02T04:44:04;4.37;;;3.97;;
22826;SDS011;11580;52.562;13.418;2023-05-02T04:46:33;5.00;;;4.10;;
22826;SDS011;11580;52.562;13.418;2023-05-02T04:49:00;5.33;;;4.80;;
22826;SDS011;11580;52.562;13.418;2023-05-02T04:51:28;4.47;;;4.03;;
22826;SDS011;11580;52.562;13.418;2023-05-02T04:53:58;5.30;;;4.80;;
22826;SDS011;11580;52.562;13.418;2023-05-02T04:56:26;4.43;;;4.10;;
22826;SDS011;11580;52.562;13.418;2023-05-02T04:58:53;5.90;;;4.80;;
22826;SDS011;11580;52.562;13.418;2023-05-02T05:01:21;5.13;;;4.33;;
22826;SDS011;11580;52.562;13.418;2023-05-02T05:03:52;5.27;;;4.93;;
22826;SDS011;11580;52.562;13.418;2023-05-02T05:06:19;4.10;;;3.80;;
22826;SDS011;11580;52.562;13.418;2023-05-02T05:08:48;5.03;;;4.60;;
22826;SDS011;11580;52.562;13.418;2023-05-02T05:11:17;5.20;;;4.50;;
22826;SDS011;11580;52.562;13.418;2023-05-02T05:13:45;5.17;;;4.53;;
22826;SDS011;11580;52.562;13.418;2023-05-02T05:16:13;6.00;;;4.80;;
22826;SDS011;11580;52.562;13.418;2023-05-02T05:18:42;5.03;;;4.53;;
22826;SDS011;11580;52.562;13.418;2023-05-02T05:21:12;5.53;;;5.03;;
22826;SDS011;11580;52.562;13.418;2023-05-02T05:23:39;6.47;;;5.60;;
22826;SDS011;11580;52.562;13.418;2023-05-02T05:26:12;5.27;;;4.80;;
22826;SDS011;11580;52.562;13.418;2023-05-02T05:28:45;7.10;;;4.33;;
22826;SDS011;11580;52.562;13.418;2023-05-02T05:31:15;4.97;;;4.60;;
22826;SDS011;11580;52.562;13.418;2023-05-02T05:33:46;5.60;;;4.60;;
22826;SDS011;11580;52.562;13.418;2023-05-02T05:36:14;5.33;;;4.93;;
22826;SDS011;11580;52.562;13.418;2023-05-02T05:38:41;5.17;;;4.67;;
22826;SDS011;11580;52.562;13.418;2023-05-02T05:41:09;5.20;;;4.70;;
22826;SDS011;11580;52.562;13.418;2023-05-02T05:43:41;5.20;;;4.60;;
22826;SDS011;11580;52.562;13.418;2023-05-02T05:46:09;5.47;;;4.97;;
22826;SDS011;11580;52.562;13.418;2023-05-02T05:48:36;5.33;;;4.43;;
22826;SDS011;11580;52.562;13.418;2023-05-02T05:51:04;5.67;;;4.77;;
22826;SDS011;11580;52.562;13.418;2023-05-02T05:53:32;5.90;;;5.40;;
22826;SDS011;11580;52.562;13.418;2023-05-02T05:56:08;5.47;;;4.87;;
22826;SDS011;11580;52.562;13.418;2023-05-02T05:58:38;5.90;;;5.43;;
22826;SDS011;11580;52.562;13.418;2023-05-02T06:01:11;6.47;;;5.83;;
22826;SDS011;11580;52.562;13.418;2023-05-02T06:03:38;6.43;;;5.80;;
22826;SDS011;11580;52.562;13.418;2023-05-02T06:06:06;6.13;;;5.63;;
22826;SDS011;11580;52.562;13.418;2023-05-02T06:08:33;6.37;;;5.60;;
22826;SDS011;11580;52.562;13.418;2023-05-02T06:11:00;5.60;;;5.10;;
22826;SDS011;11580;52.562;13.418;2023-05-02T06:13:27;6.10;;;5.50;;
22826;SDS011;11580;52.562;13.418;2023-05-02T06:15:58;5.30;;;4.90;;
22826;SDS011;11580;52.562;13.418;2023-05-02T06:18:29;6.13;;;5.63;;
22826;SDS011;11580;52.562;13.418;2023-05-02T06:20:56;6.60;;;6.00;;
22826;SDS011;11580;52.562;13.418;2023-05-02T06:23:29;7.20;;;6.60;;
22826;SDS011;11580;52.562;13.418;2023-05-02T06:25:57;8.57;;;7.63;;
22826;SDS011;11580;52.562;13.418;2023-05-02T06:28:26;8.43;;;7.60;;
22826;SDS011;11580;52.562;13.418;2023-05-02T06:30:57;9.03;;;8.10;;
22826;SDS011;11580;52.562;13.418;2023-05-02T06:33:25;8.97;;;7.60;;
22826;SDS011;11580;52.562;13.418;2023-05-02T06:35:54;11.00;;;9.90;;
22826;SDS011;11580;52.562;13.418;2023-05-02T06:38:22;9.13;;;8.23;;
22826;SDS011;11580;52.562;13.418;2023-05-02T06:40:49;7.93;;;7.13;;
22826;SDS011;11580;52.562;13.418;2023-05-02T06:43:17;9.87;;;8.93;;
22826;SDS011;11580;52.562;13.418;2023-05-02T06:45:45;8.57;;;7.87;;
22826;SDS011;11580;52.562;13.418;2023-05-02T06:48:12;9.03;;;8.23;;
22826;SDS011;11580;52.562;13.418;2023-05-02T06:50:39;9.07;;;8.20;;
22826;SDS011;11580;52.562;13.418;2023-05-02T06:53:08;9.20;;;7.93;;
22826;SDS011;11580;52.562;13.418;2023-05-02T06:55:35;8.70;;;7.80;;
22826;SDS011;11580;52.562;13.418;2023-05-02T06:58:02;9.03;;;8.13;;
22826;SDS011;11580;52.562;13.418;2023-05-02T07:00:29;8.30;;;7.50;;
22826;SDS011;11580;52.562;13.418;2023-05-02T07:02:56;8.30;;;7.50;;
22826;SDS011;11580;52.562;13.418;2023-05-02T07:05:24;8.40;;;7.70;;
22826;SDS011;11580;52.562;13.418;2023-05-02T07:07:51;7.17;;;6.53;;
22826;SDS011;11580;52.562;13.418;2023-05-02T07:10:19;8.27;;;7.57;;
22826;SDS011;11580;52.562;13.418;2023-05-02T07:12:46;7.70;;;6.80;;
22826;SDS011;11580;52.562;13.418;2023-05-02T07:15:14;6.80;;;6.10;;
22826;SDS011;11580;52.562;13.418;2023-05-02T07:17:41;7.20;;;6.60;;
22826;SDS011;11580;52.562;13.418;2023-05-02T07:20:09;7.63;;;6.60;;
22826;SDS011;11580;52.562;13.418;2023-05-02T07:22:37;6.50;;;5.40;;
22826;SDS011;11580;52.562;13.418;2023-05-02T07:25:04;6.60;;;5.90;;
22826;SDS011;11580;52.562;13.418;2023-05-02T07:27:33;6.87;;;6.33;;
22826;SDS011;11580;52.562;13.418;2023-05-02T07:30:00;7.00;;;6.43;;
22826;SDS011;11580;52.562;13.418;2023-05-02T07:32:28;6.10;;;5.60;;
22826;SDS011;11580;52.562;13.418;2023-05-02T07:34:56;6.83;;;6.13;;
22826;SDS011;11580;52.562;13.418;2023-05-02T07:37:23;5.90;;;5.40;;
22826;SDS011;11580;52.562;13.418;2023-05-02T07:39:51;6.63;;;5.73;;
22826;SDS011;11580;52.562;13.418;2023-05-02T07:42:18;7.33;;;6.63;;
22826;SDS011;11580;52.562;13.418;2023-05-02T07:44:46;7.73;;;6.87;;
22826;SDS011;11580;52.562;13.418;2023-05-02T07:47:13;7.50;;;6.80;;
22826;SDS011;11580;52.562;13.418;2023-05-02T07:49:41;6.93;;;6.33;;
22826;SDS011;11580;52.562;13.418;2023-05-02T07:52:08;6.97;;;6.10;;
22826;SDS011;11580;52.562;13.418;2023-05-02T07:54:35;6.37;;;5.87;;
22826;SDS011;11580;52.562;13.418;2023-05-02T07:57:02;7.47;;;6.23;;
22826;SDS011;11580;52.562;13.418;2023-05-02T07:59:32;6.47;;;5.93;;
22826;SDS011;11580;52.562;13.418;2023-05-02T08:02:00;6.73;;;6.07;;
22826;SDS011;11580;52.562;13.418;2023-05-02T08:04:28;5.90;;;5.40;;
22826;SDS011;11580;52.562;13.418;2023-05-02T08:06:55;5.73;;;5.20;;
22826;SDS011;11580;52.562;13.418;2023-05-02T08:09:22;7.00;;;5.50;;
22826;SDS011;11580;52.562;13.418;2023-05-02T08:11:49;5.27;;;4.77;;
22826;SDS011;11580;52.562;13.418;2023-05-02T08:14:16;5.20;;;4.70;;
22826;SDS011;11580;52.562;13.418;2023-05-02T08:16:43;4.53;;;4.13;;
22826;SDS011;11580;52.562;13.418;2023-05-02T08:19:12;5.10;;;4.60;;
22826;SDS011;11580;52.562;13.418;2023-05-02T08:21:40;3.90;;;3.60;;
22826;SDS011;11580;52.562;13.418;2023-05-02T08:24:08;3.47;;;3.07;;
22826;SDS011;11580;52.562;13.418;2023-05-02T08:26:35;3.30;;;3.10;;
22826;SDS011;11580;52.562;13.418;2023-05-02T08:29:02;3.10;;;2.90;;
22826;SDS011;11580;52.562;13.418;2023-05-02T08:31:30;4.43;;;4.03;;
22826;SDS011;11580;52.562;13.418;2023-05-02T08:33:57;4.47;;;4.07;;
22826;SDS011;11580;52.562;13.418;2023-05-02T08:36:26;4.93;;;4.10;;
22826;SDS011;11580;52.562;13.418;2023-05-02T08:38:53;4.20;;;3.80;;
22826;SDS011;11580;52.562;13.418;2023-05-02T08:41:20;5.43;;;5.03;;
22826;SDS011;11580;52.562;13.418;2023-05-02T08:43:48;4.67;;;4.27;;
22826;SDS011;11580;52.562;13.418;2023-05-02T08:46:15;4.73;;;4.30;;
22826;SDS011;11580;52.562;13.418;2023-05-02T08:48:44;5.73;;;5.23;;
22826;SDS011;11580;52.562;13.418;2023-05-02T08:51:13;4.73;;;4.33;;
22826;SDS011;11580;52.562;13.418;2023-05-02T08:53:43;4.70;;;4.30;;
22826;SDS011;11580;52.562;13.418;2023-05-02T08:56:11;4.60;;;4.30;;
22826;SDS011;11580;52.562;13.418;2023-05-02T08:58:39;6.50;;;4.87;;
22826;SDS011;11580;52.562;13.418;2023-05-02T09:01:09;4.63;;;4.23;;
22826;SDS011;11580;52.562;13.418;2023-05-02T09:03:42;4.90;;;4.50;;
22826;SDS011;11580;52.562;13.418;2023-05-02T09:06:12;4.43;;;4.13;;
22826;SDS011;11580;52.562;13.418;2023-05-02T09:08:41;5.97;;;5.33;;
22826;SDS011;11580;52.562;13.418;2023-05-02T09:11:13;4.80;;;4.40;;
22826;SDS011;11580;52.562;13.418;2023-05-02T09:13:42;5.47;;;5.07;;
22826;SDS011;11580;52.562;13.418;2023-05-02T09:16:11;5.20;;;4.80;;
22826;SDS011;11580;52.562;13.418;2023-05-02T09:18:41;4.50;;;4.20;;
22826;SDS011;11580;52.562;13.418;2023-05-02T09:21:10;4.77;;;4.33;;
22826;SDS011;11580;52.562;13.418;2023-05-02T09:23:41;5.13;;;4.73;;
22826;SDS011;11580;52.562;13.418;2023-05-02T09:26:12;5.43;;;4.80;;
22826;SDS011;11580;52.562;13.418;2023-05-02T09:28:42;5.87;;;5.37;;
22826;SDS011;11580;52.562;13.418;2023-05-02T09:31:12;5.17;;;4.77;;
22826;SDS011;11580;52.562;13.418;2023-05-02T09:33:41;5.90;;;4.37;;
22826;SDS011;11580;52.562;13.418;2023-05-02T09:36:10;5.10;;;4.60;;
22826;SDS011;11580;52.562;13.418;2023-05-02T09:38:39;4.40;;;4.00;;
22826;SDS011;11580;52.562;13.418;2023-05-02T09:41:09;5.00;;;4.57;;
22826;SDS011;11580;52.562;13.418;2023-05-02T09:43:37;5.03;;;3.90;;
22826;SDS011;11580;52.562;13.418;2023-05-02T09:46:05;5.30;;;4.80;;
22826;SDS011;11580;52.562;13.418;2023-05-02T09:48:50;5.13;;;4.63;;
22826;SDS011;11580;52.562;13.418;2023-05-02T09:51:20;4.90;;;4.50;;
22826;SDS011;11580;52.562;13.418;2023-05-02T09:53:48;4.07;;;3.70;;
22826;SDS011;11580;52.562;13.418;2023-05-02T09:56:18;4.70;;;4.33;;
22826;SDS011;11580;52.562;13.418;2023-05-02T09:58:45;3.83;;;3.40;;
22826;SDS011;11580;52.562;13.418;2023-05-02T10:01:15;3.60;;;3.30;;
22826;SDS011;11580;52.562;13.418;2023-05-02T10:03:45;4.30;;;3.90;;
22826;SDS011;11580;52.562;13.418;2023-05-02T10:06:13;3.50;;;3.20;;
22826;SDS011;11580;52.562;13.418;2023-05-02T10:08:42;4.23;;;2.80;;
22826;SDS011;11580;52.562;13.418;2023-05-02T10:11:11;3.20;;;3.00;;
22826;SDS011;11580;52.562;13.418;2023-05-02T10:13:40;3.83;;;3.53;;
22826;SDS011;11580;52.562;13.418;2023-05-02T10:16:10;3.50;;;3.20;;
22826;SDS011;11580;52.562;13.418;2023-05-02T10:18:39;3.70;;;3.40;;
22826;SDS011;11580;52.562;13.418;2023-05-02T10:21:15;3.30;;;3.10;;
22826;SDS011;11580;52.562;13.418;2023-05-02T10:23:45;3.70;;;3.23;;
22826;SDS011;11580;52.562;13.418;2023-05-02T10:26:14;3.47;;;3.17;;
22826;SDS011;11580;52.562;13.418;2023-05-02T10:28:44;4.17;;;3.60;;
22826;SDS011;11580;52.562;13.418;2023-05-02T10:31:12;3.90;;;3.50;;
22826;SDS011;11580;52.562;13.418;2023-05-02T10:33:40;4.10;;;3.80;;
22826;SDS011;11580;52.562;13.418;2023-05-02T10:36:07;4.20;;;3.80;;
22826;SDS011;11580;52.562;13.418;2023-05-02T10:38:37;3.60;;;3.30;;
22826;SDS011;11580;52.562;13.418;2023-05-02T10:41:07;4.83;;;2.90;;
22826;SDS011;11580;52.562;13.418;2023-05-02T10:43:40;3.20;;;2.60;;
22826;SDS011;11580;52.562;13.418;2023-05-02T10:46:29;2.60;;;2.40;;
22826;SDS011;11580;52.562;13.418;2023-05-02T10:49:02;4.03;;;3.73;;
22826;SDS011;11580;52.562;13.418;2023-05-02T10:51:32;4.13;;;3.73;;
22826;SDS011;11580;52.562;13.418;2023-05-02T10:57:04;4.33;;;3.80;;
22826;SDS011;11580;52.562;13.418;2023-05-02T10:59:35;5.67;;;5.20;;
22826;SDS011;11580;52.562;13.418;2023-05-02T11:02:04;6.50;;;5.73;;
22826;SDS011;11580;52.562;13.418;2023-05-02T11:05:10;5.73;;;5.23;;
22826;SDS011;11580;52.562;13.418;2023-05-02T11:07:38;5.73;;;5.23;;
22826;SDS011;11580;52.562;13.418;2023-05-02T11:12:54;6.67;;;5.40;;
22826;SDS011;11580;52.562;13.418;2023-05-02T11:18:22;10.13;;;6.30;;
22826;SDS011;11580;52.562;13.418;2023-05-02T11:20:49;6.00;;;5.40;;
22826;SDS011;11580;52.562;13.418;2023-05-02T11:23:20;6.17;;;5.50;;
22826;SDS011;11580;52.562;13.418;2023-05-02T11:25:51;7.80;;;5.53;;
22826;SDS011;11580;52.562;13.418;2023-05-02T11:28:40;6.57;;;5.40;;
22826;SDS011;11580;52.562;13.418;2023-05-02T11:34:40;7.20;;;5.40;;
22826;SDS011;11580;52.562;13.418;2023-05-02T11:37:10;6.17;;;4.20;;
22826;SDS011;11580;52.562;13.418;2023-05-02T11:39:40;4.70;;;3.40;;
22826;SDS011;11580;52.562;13.418;2023-05-02T11:42:08;6.10;;;4.00;;
22826;SDS011;11580;52.562;13.418;2023-05-02T11:47:26;4.37;;;3.97;;
22826;SDS011;11580;52.562;13.418;2023-05-02T11:49:54;3.87;;;3.37;;
22826;SDS011;11580;52.562;13.418;2023-05-02T11:52:23;5.50;;;3.80;;
22826;SDS011;11580;52.562;13.418;2023-05-02T11:54:52;4.27;;;3.53;;
22826;SDS011;11580;52.562;13.418;2023-05-02T11:57:21;6.03;;;3.60;;
22826;SDS011;11580;52.562;13.418;2023-05-02T11:59:48;7.20;;;3.70;;
22826;SDS011;11580;52.562;13.418;2023-05-02T12:02:17;4.83;;;4.00;;
22826;SDS011;11580;52.562;13.418;2023-05-02T12:04:46;3.27;;;2.97;;
22826;SDS011;11580;52.562;13.418;2023-05-02T12:07:13;3.30;;;3.00;;
22826;SDS011;11580;52.562;13.418;2023-05-02T12:09:49;3.03;;;2.73;;
22826;SDS011;11580;52.562;13.418;2023-05-02T12:12:18;3.20;;;2.67;;
22826;SDS011;11580;52.562;13.418;2023-05-02T12:14:46;3.20;;;3.00;;
22826;SDS011;11580;52.562;13.418;2023-05-02T12:17:13;3.70;;;2.83;;
22826;SDS011;11580;52.562;13.418;2023-05-02T12:19:41;5.17;;;3.60;;
22826;SDS011;11580;52.562;13.418;2023-05-02T12:22:11;4.13;;;3.27;;
22826;SDS011;11580;52.562;13.418;2023-05-02T12:24:38;3.80;;;3.40;;
22826;SDS011;11580;52.562;13.418;2023-05-02T12:27:07;3.93;;;3.57;;
22826;SDS011;11580;52.562;13.418;2023-05-02T12:29:37;6.07;;;3.90;;
22826;SDS011;11580;52.562;13.418;2023-05-02T12:32:06;4.40;;;3.70;;
22826;SDS011;11580;52.562;13.418;2023-05-02T12:34:34;5.13;;;3.80;;
22826;SDS011;11580;52.562;13.418;2023-05-02T12:37:03;4.90;;;3.90;;
22826;SDS011;11580;52.562;13.418;2023-05-02T12:39:35;5.57;;;4.00;;
22826;SDS011;11580;52.562;13.418;2023-05-02T12:42:10;6.50;;;4.07;;
22826;SDS011;11580;52.562;13.418;2023-05-02T12:44:39;6.00;;;4.00;;
22826;SDS011;11580;52.562;13.418;2023-05-02T12:47:08;4.67;;;3.67;;
22826;SDS011;11580;52.562;13.418;2023-05-02T12:49:49;4.03;;;3.50;;
22826;SDS011;11580;52.562;13.418;2023-05-02T12:52:18;5.10;;;4.00;;
22826;SDS011;11580;52.562;13.418;2023-05-02T12:54:47;6.50;;;3.87;;
22826;SDS011;11580;52.562;13.418;2023-05-02T12:57:21;8.13;;;5.13;;
22826;SDS011;11580;52.562;13.418;2023-05-02T12:59:50;5.63;;;4.20;;
22826;SDS011;11580;52.562;13.418;2023-05-02T13:02:18;5.97;;;4.83;;
22826;SDS011;11580;52.562;13.418;2023-05-02T13:04:46;6.60;;;4.20;;
22826;SDS011;11580;52.562;13.418;2023-05-02T13:07:14;6.00;;;3.90;;
22826;SDS011;11580;52.562;13.418;2023-05-02T13:09:41;5.53;;;3.53;;
22826;SDS011;11580;52.562;13.418;2023-05-02T13:12:10;5.07;;;3.50;;
22826;SDS011;11580;52.562;13.418;2023-05-02T13:14:37;6.47;;;4.67;;
22826;SDS011;11580;52.562;13.418;2023-05-02T13:17:04;6.37;;;4.20;;
22826;SDS011;11580;52.562;13.418;2023-05-02T13:19:32;8.93;;;4.63;;
22826;SDS011;11580;52.562;13.418;2023-05-02T13:22:00;5.40;;;4.13;;
22826;SDS011;11580;52.562;13.418;2023-05-02T13:24:27;5.50;;;4.20;;
22826;SDS011;11580;52.562;13.418;2023-05-02T13:26:54;4.13;;;3.73;;
22826;SDS011;11580;52.562;13.418;2023-05-02T13:29:23;7.00;;;4.00;;
22826;SDS011;11580;52.562;13.418;2023-05-02T13:31:50;4.37;;;3.73;;
22826;SDS011;11580;52.562;13.418;2023-05-02T13:34:17;5.20;;;3.70;;
22826;SDS011;11580;52.562;13.418;2023-05-02T13:36:44;4.70;;;4.00;;
22826;SDS011;11580;52.562;13.418;2023-05-02T13:39:11;5.93;;;4.23;;
22826;SDS011;11580;52.562;13.418;2023-05-02T13:41:38;7.43;;;3.90;;
22826;SDS011;11580;52.562;13.418;2023-05-02T13:44:06;7.37;;;3.90;;
22826;SDS011;11580;52.562;13.418;2023-05-02T13:46:34;5.37;;;3.90;;
22826;SDS011;11580;52.562;13.418;2023-05-02T13:49:02;4.93;;;3.80;;
22826;SDS011;11580;52.562;13.418;2023-05-02T13:51:29;6.20;;;3.60;;
22826;SDS011;11580;52.562;13.418;2023-05-02T13:53:57;4.37;;;3.80;;
22826;SDS011;11580;52.562;13.418;2023-05-02T13:56:25;5.17;;;4.63;;
22826;SDS011;11580;52.562;13.418;2023-05-02T13:58:52;3.60;;;3.30;;
22826;SDS011;11580;52.562;13.418;2023-05-02T14:01:19;7.07;;;4.40;;
22826;SDS011;11580;52.562;13.418;2023-05-02T14:03:48;5.60;;;3.90;;
22826;SDS011;11580;52.562;13.418;2023-05-02T14:06:15;4.50;;;3.50;;
22826;SDS011;11580;52.562;13.418;2023-05-02T14:08:43;3.60;;;3.30;;
22826;SDS011;11580;52.562;13.418;2023-05-02T14:11:10;6.50;;;4.20;;
22826;SDS011;11580;52.562;13.418;2023-05-02T14:13:37;5.27;;;3.93;;
22826;SDS011;11580;52.562;13.418;2023-05-02T14:16:04;3.83;;;3.00;;
22826;SDS011;11580;52.562;13.418;2023-05-02T14:18:31;3.67;;;3.37;;
22826;SDS011;11580;52.562;13.418;2023-05-02T14:21:00;3.87;;;3.50;;
22826;SDS011;11580;52.562;13.418;2023-05-02T14:23:28;4.63;;;3.87;;
22826;SDS011;11580;52.562;13.418;2023-05-02T14:25:55;4.97;;;3.60;;
22826;SDS011;11580;52.562;13.418;2023-05-02T14:28:22;3.70;;;3.37;;
22826;SDS011;11580;52.562;13.418;2023-05-02T14:30:51;4.07;;;3.13;;
22826;SDS011;11580;52.562;13.418;2023-05-02T14:33:18;5.70;;;4.20;;
22826;SDS011;11580;52.562;13.418;2023-05-02T14:35:45;5.73;;;5.13;;
22826;SDS011;11580;52.562;13.418;2023-05-02T14:38:15;4.00;;;3.50;;
22826;SDS011;11580;52.562;13.418;2023-05-02T14:40:42;4.97;;;3.67;;
22826;SDS011;11580;52.562;13.418;2023-05-02T14:43:09;6.73;;;3.90;;
22826;SDS011;11580;52.562;13.418;2023-05-02T14:45:36;3.57;;;2.93;;
22826;SDS011;11580;52.562;13.418;2023-05-02T14:48:04;7.73;;;2.97;;
22826;SDS011;11580;52.562;13.418;2023-05-02T14:50:32;5.33;;;3.30;;
22826;SDS011;11580;52.562;13.418;2023-05-02T14:52:59;4.13;;;3.50;;
22826;SDS011;11580;52.562;13.418;2023-05-02T14:55:27;3.57;;;3.20;;
22826;SDS011;11580;52.562;13.418;2023-05-02T14:57:54;4.57;;;3.33;;
22826;SDS011;11580;52.562;13.418;2023-05-02T15:00:22;5.00;;;3.63;;
22826;SDS011;11580;52.562;13.418;2023-05-02T15:02:49;4.13;;;2.90;;
22826;SDS011;11580;52.562;13.418;2023-05-02T15:05:17;5.30;;;3.97;;